createdAt,value
2016-03-16T00:00:16.294Z,3.16
2016-03-16T00:01:16.250Z,3.14
2016-03-16T00:02:16.284Z,3.19
2016-03-16T00:03:16.270Z,3.03
2016-03-16T00:04:16.273Z,3.19
2016-03-16T00:05:16.291Z,3.18
2016-03-16T00:06:16.310Z,3.19
2016-03-16T00:07:16.296Z,3.11
2016-03-16T00:08:16.315Z,3.18
2016-03-16T00:09:16.318Z,3.14
2016-03-16T00:10:16.321Z,3.01
2016-03-16T00:11:16.324Z,3.13
2016-03-16T00:12:16.357Z,3.16
2016-03-16T00:13:16.344Z,3.26
2016-03-16T00:14:16.378Z,3.21
2016-03-16T00:15:16.381Z,3.28
2016-03-16T00:16:16.368Z,3.19
2016-03-16T00:17:16.386Z,3.18
2016-03-16T00:18:16.467Z,3.19
2016-03-16T00:19:16.398Z,3.21
2016-03-16T00:20:16.389Z,3.07
2016-03-16T00:21:16.379Z,3.21
2016-03-16T00:22:16.417Z,3.16
2016-03-16T00:23:16.377Z,3.16
2016-03-16T00:24:16.389Z,3.19
2016-03-16T00:25:16.387Z,3.16
2016-03-16T00:26:16.386Z,3.1
2016-03-16T00:27:16.384Z,3.14
2016-03-16T00:28:16.399Z,3
2016-03-16T00:29:16.415Z,3.04
2016-03-16T00:30:16.404Z,3
2016-03-16T00:31:16.405Z,3.07
2016-03-16T00:32:16.422Z,3.04
2016-03-16T00:33:16.422Z,3.18
2016-03-16T00:34:16.441Z,3.13
2016-03-16T00:35:16.443Z,3.18
2016-03-16T00:36:16.462Z,3.16
2016-03-16T00:37:16.464Z,3.14
2016-03-16T00:38:16.497Z,3.21
2016-03-16T00:39:16.468Z,3.14
2016-03-16T00:40:16.518Z,3.13
2016-03-16T00:41:16.504Z,3.08
2016-03-16T00:42:16.522Z,3.07
2016-03-16T00:43:16.509Z,2.97
2016-03-16T00:44:16.542Z,3.01
2016-03-16T00:45:16.514Z,3.04
2016-03-16T00:46:16.547Z,2.93
2016-03-16T00:47:16.535Z,3.05
2016-03-16T00:48:16.569Z,3.03
2016-03-16T00:49:16.587Z,3.03
2016-03-16T00:50:16.574Z,3.08
2016-03-16T00:51:16.577Z,3.08
2016-03-16T00:52:16.595Z,2.98
2016-03-16T00:53:16.597Z,2.9
2016-03-16T00:54:16.600Z,3.07
2016-03-16T00:55:16.603Z,2.93
2016-03-16T00:56:16.652Z,2.95
2016-03-16T00:57:16.624Z,3.03
2016-03-16T00:58:16.612Z,3.01
2016-03-16T00:59:16.927Z,3.05
2016-03-16T01:00:16.646Z,3
2016-03-16T01:01:16.664Z,3.04
2016-03-16T01:02:16.651Z,3.04
2016-03-16T01:03:16.701Z,2.89
2016-03-16T01:04:16.688Z,2.92
2016-03-16T01:05:16.691Z,2.97
2016-03-16T01:06:16.693Z,2.86
2016-03-16T01:07:16.699Z,2.95
2016-03-16T01:08:16.717Z,2.86
2016-03-16T01:09:16.720Z,2.87
2016-03-16T01:10:16.738Z,2.93
2016-03-16T01:11:16.740Z,2.93
2016-03-16T01:12:16.759Z,2.92
2016-03-16T01:13:16.746Z,2.87
2016-03-16T01:14:16.753Z,2.92
2016-03-16T01:15:16.787Z,2.92
2016-03-16T01:16:16.775Z,3.04
2016-03-16T01:17:16.808Z,3.05
2016-03-16T01:18:16.796Z,3.1
2016-03-16T01:19:16.814Z,3.07
2016-03-16T01:20:16.801Z,3.1
2016-03-16T01:21:16.834Z,3.04
2016-03-16T01:22:16.838Z,3
2016-03-16T01:23:16.840Z,2.97
2016-03-16T01:24:16.843Z,3.07
2016-03-16T01:25:16.846Z,3.03
2016-03-16T01:26:16.864Z,3.01
2016-03-16T01:27:16.867Z,2.95
2016-03-16T01:28:16.886Z,2.95
2016-03-16T01:29:16.888Z,3
2016-03-16T01:30:16.906Z,3.04
2016-03-16T01:31:16.924Z,3.05
2016-03-16T01:32:16.911Z,2.97
2016-03-16T01:33:16.914Z,2.93
2016-03-16T01:34:16.917Z,2.92
2016-03-16T01:35:16.935Z,2.86
2016-03-16T01:36:16.954Z,2.87
2016-03-16T01:37:16.941Z,2.92
2016-03-16T01:38:16.975Z,2.89
2016-03-16T01:39:16.993Z,2.92
2016-03-16T01:40:16.980Z,2.92
2016-03-16T01:41:16.983Z,2.82
2016-03-16T01:42:17.001Z,2.82
2016-03-16T01:43:17.004Z,2.8
2016-03-16T01:44:17.037Z,2.79
2016-03-16T01:45:17.040Z,2.87
2016-03-16T01:46:17.043Z,2.82
2016-03-16T01:47:17.045Z,2.83
2016-03-16T01:48:17.017Z,2.83
2016-03-16T01:49:17.035Z,2.93
2016-03-16T01:50:17.054Z,2.86
2016-03-16T01:51:17.056Z,2.82
2016-03-16T01:52:17.075Z,2.9
2016-03-16T01:53:17.078Z,2.83
2016-03-16T01:54:17.096Z,2.92
2016-03-16T01:55:17.083Z,2.95
2016-03-16T01:56:17.101Z,2.87
2016-03-16T01:57:17.120Z,2.75
2016-03-16T01:58:17.123Z,2.72
2016-03-16T01:59:17.125Z,2.65
2016-03-16T02:00:17.159Z,2.68
2016-03-16T02:01:17.162Z,2.77
2016-03-16T02:02:17.164Z,2.8
2016-03-16T02:03:17.152Z,2.75
2016-03-16T02:04:17.170Z,2.82
2016-03-16T02:05:17.188Z,2.85
2016-03-16T02:06:17.190Z,2.83
2016-03-16T02:07:17.209Z,2.72
2016-03-16T02:08:17.179Z,2.68
2016-03-16T02:09:17.214Z,2.83
2016-03-16T02:10:17.217Z,2.83
2016-03-16T02:11:17.234Z,2.83
2016-03-16T02:12:17.253Z,2.87
2016-03-16T02:13:17.256Z,2.82
2016-03-16T02:14:17.243Z,2.89
2016-03-16T02:15:17.261Z,2.89
2016-03-16T02:16:17.263Z,3.03
2016-03-16T02:17:17.267Z,2.89
2016-03-16T02:18:17.409Z,2.9
2016-03-16T02:19:17.287Z,2.83
2016-03-16T02:20:17.306Z,2.89
2016-03-16T02:21:17.310Z,2.95
2016-03-16T02:22:17.312Z,2.83
2016-03-16T02:23:17.331Z,2.75
2016-03-16T02:24:17.333Z,2.89
2016-03-16T02:25:17.351Z,2.83
2016-03-16T02:26:17.370Z,2.71
2016-03-16T02:27:17.356Z,2.68
2016-03-16T02:28:17.390Z,2.71
2016-03-16T02:29:17.361Z,2.74
2016-03-16T02:30:17.365Z,2.79
2016-03-16T02:31:17.414Z,2.68
2016-03-16T02:32:17.386Z,2.72
2016-03-16T02:33:17.436Z,2.68
2016-03-16T02:34:17.406Z,2.85
2016-03-16T02:35:17.425Z,2.8
2016-03-16T02:36:17.428Z,2.85
2016-03-16T02:37:17.447Z,2.83
2016-03-16T02:38:17.433Z,2.86
2016-03-16T02:39:17.436Z,2.86
2016-03-16T02:40:17.469Z,2.92
2016-03-16T02:41:17.457Z,2.86
2016-03-16T02:42:17.460Z,2.86
2016-03-16T02:43:17.478Z,2.69
2016-03-16T02:44:17.496Z,2.69
2016-03-16T02:45:17.515Z,2.74
2016-03-16T02:46:17.501Z,2.77
2016-03-16T02:47:17.566Z,2.74
2016-03-16T02:48:17.522Z,2.82
2016-03-16T02:49:17.401Z,2.77
2016-03-16T02:50:17.543Z,2.74
2016-03-16T02:51:17.577Z,2.75
2016-03-16T02:52:17.548Z,2.64
2016-03-16T02:53:17.567Z,2.54
2016-03-16T02:54:17.570Z,2.68
2016-03-16T02:55:17.604Z,2.71
2016-03-16T02:56:17.591Z,2.67
2016-03-16T02:57:17.609Z,2.71
2016-03-16T02:58:17.659Z,2.75
2016-03-16T02:59:17.614Z,2.72
2016-03-16T03:00:17.633Z,2.67
2016-03-16T03:01:17.620Z,2.61
2016-03-16T03:02:17.654Z,2.61
2016-03-16T03:03:17.641Z,2.65
2016-03-16T03:04:17.674Z,2.69
2016-03-16T03:05:17.661Z,2.72
2016-03-16T03:06:17.539Z,2.69
2016-03-16T03:07:17.683Z,2.65
2016-03-16T03:08:17.685Z,2.67
2016-03-16T03:09:17.688Z,2.6
2016-03-16T03:10:17.691Z,2.54
2016-03-16T03:11:17.725Z,2.5
2016-03-16T03:12:17.727Z,2.57
2016-03-16T03:13:17.777Z,2.62
2016-03-16T03:14:17.749Z,2.65
2016-03-16T03:15:17.752Z,2.71
2016-03-16T03:16:17.754Z,2.67
2016-03-16T03:17:17.771Z,2.71
2016-03-16T03:18:17.760Z,2.69
2016-03-16T03:19:17.793Z,2.61
2016-03-16T03:20:17.780Z,2.74
2016-03-16T03:21:17.830Z,2.83
2016-03-16T03:22:17.817Z,2.87
2016-03-16T03:23:17.820Z,2.72
2016-03-16T03:24:17.807Z,2.75
2016-03-16T03:25:17.825Z,2.67
2016-03-16T03:26:17.828Z,2.67
2016-03-16T03:27:17.846Z,2.64
2016-03-16T03:28:17.864Z,2.68
2016-03-16T03:29:17.851Z,2.69
2016-03-16T03:30:17.854Z,2.57
2016-03-16T03:31:17.873Z,2.65
2016-03-16T03:32:18.078Z,2.62
2016-03-16T03:33:17.878Z,2.61
2016-03-16T03:34:17.881Z,2.54
2016-03-16T03:35:17.900Z,2.56
2016-03-16T03:36:17.902Z,2.56
2016-03-16T03:37:17.904Z,2.53
2016-03-16T03:38:17.923Z,2.62
2016-03-16T03:39:17.925Z,2.6
2016-03-16T03:40:17.958Z,2.57
2016-03-16T03:41:17.961Z,2.56
2016-03-16T03:42:17.949Z,2.5
2016-03-16T03:43:17.967Z,2.35
2016-03-16T03:44:17.954Z,2.29
2016-03-16T03:45:17.972Z,2.42
2016-03-16T03:46:17.991Z,2.44
2016-03-16T03:47:17.994Z,2.51
2016-03-16T03:48:18.012Z,2.44
2016-03-16T03:49:17.999Z,2.38
2016-03-16T03:50:18.033Z,2.33
2016-03-16T03:51:18.035Z,2.31
2016-03-16T03:52:18.054Z,2.35
2016-03-16T03:53:18.072Z,2.43
2016-03-16T03:54:18.059Z,2.33
2016-03-16T03:55:18.061Z,2.44
2016-03-16T03:56:18.080Z,2.39
2016-03-16T03:57:18.067Z,2.46
2016-03-16T03:58:18.086Z,2.39
2016-03-16T03:59:18.089Z,2.31
2016-03-16T04:00:18.091Z,2.35
2016-03-16T04:01:18.109Z,2.29
2016-03-16T04:02:18.128Z,2.24
2016-03-16T04:03:18.146Z,2.22
2016-03-16T04:04:18.133Z,2.15
2016-03-16T04:05:18.135Z,2.18
2016-03-16T04:06:18.153Z,2.13
2016-03-16T04:07:18.141Z,2.18
2016-03-16T04:08:18.158Z,2.2
2016-03-16T04:09:18.161Z,2.1
2016-03-16T04:10:18.180Z,2.13
2016-03-16T04:11:18.183Z,2.07
2016-03-16T04:12:18.202Z,2.08
2016-03-16T04:13:18.204Z,2.08
2016-03-16T04:14:18.207Z,2.08
2016-03-16T04:15:18.209Z,2.13
2016-03-16T04:16:18.212Z,1.91
2016-03-16T04:17:18.277Z,2
2016-03-16T04:18:18.264Z,2.04
2016-03-16T04:19:18.251Z,2.02
2016-03-16T04:20:18.254Z,1.91
2016-03-16T04:21:18.241Z,1.95
2016-03-16T04:22:18.275Z,1.84
2016-03-16T04:23:18.263Z,1.78
2016-03-16T04:24:18.281Z,1.8
2016-03-16T04:25:18.283Z,1.71
2016-03-16T04:26:18.301Z,1.73
2016-03-16T04:27:18.304Z,1.87
2016-03-16T04:28:18.307Z,1.74
2016-03-16T04:29:18.325Z,1.78
2016-03-16T04:30:18.343Z,1.76
2016-03-16T04:31:18.331Z,1.8
2016-03-16T04:32:18.349Z,1.84
2016-03-16T04:33:18.351Z,1.81
2016-03-16T04:34:18.354Z,1.76
2016-03-16T04:35:18.357Z,1.74
2016-03-16T04:36:18.375Z,1.74
2016-03-16T04:37:18.409Z,1.62
2016-03-16T04:38:18.380Z,1.66
2016-03-16T04:39:18.384Z,1.63
2016-03-16T04:40:18.402Z,1.66
2016-03-16T04:41:18.420Z,1.81
2016-03-16T04:42:18.407Z,1.74
2016-03-16T04:43:18.425Z,1.73
2016-03-16T04:44:18.428Z,1.81
2016-03-16T04:45:18.478Z,1.8
2016-03-16T04:46:18.433Z,1.76
2016-03-16T04:47:18.452Z,1.7
2016-03-16T04:48:18.454Z,1.74
2016-03-16T04:49:18.457Z,1.81
2016-03-16T04:50:18.476Z,1.81
2016-03-16T04:51:18.494Z,1.78
2016-03-16T04:52:18.496Z,1.88
2016-03-16T04:53:18.499Z,1.97
2016-03-16T04:54:18.501Z,1.92
2016-03-16T04:55:18.520Z,1.91
2016-03-16T04:56:18.507Z,1.81
2016-03-16T04:57:18.526Z,1.85
2016-03-16T04:58:18.543Z,1.81
2016-03-16T04:59:18.531Z,1.91
2016-03-16T05:00:18.549Z,1.88
2016-03-16T05:01:18.551Z,1.73
2016-03-16T05:02:18.554Z,1.68
2016-03-16T05:03:18.557Z,1.84
2016-03-16T05:04:18.607Z,1.91
2016-03-16T05:05:18.594Z,1.89
2016-03-16T05:06:18.583Z,1.76
2016-03-16T05:07:18.620Z,1.77
2016-03-16T05:08:18.592Z,1.77
2016-03-16T05:09:18.611Z,1.76
2016-03-16T05:10:18.614Z,1.7
2016-03-16T05:11:18.647Z,1.71
2016-03-16T05:12:18.619Z,1.76
2016-03-16T05:13:18.652Z,1.91
2016-03-16T05:14:18.639Z,1.84
2016-03-16T05:15:18.658Z,1.85
2016-03-16T05:16:18.661Z,1.78
2016-03-16T05:17:18.679Z,1.92
2016-03-16T05:18:18.681Z,1.88
2016-03-16T05:19:18.716Z,1.87
2016-03-16T05:20:18.702Z,1.91
2016-03-16T05:21:32.799Z,1.8
2016-03-16T05:22:18.708Z,1.73
2016-03-16T05:23:18.726Z,1.67
2016-03-16T05:24:18.729Z,1.62
2016-03-16T05:25:18.747Z,1.6
2016-03-16T05:26:18.735Z,1.6
2016-03-16T05:27:18.738Z,1.7
2016-03-16T05:28:18.740Z,1.74
2016-03-16T05:29:18.758Z,1.73
2016-03-16T05:30:18.760Z,1.71
2016-03-16T05:31:18.779Z,1.68
2016-03-16T05:32:18.782Z,1.71
2016-03-16T05:33:18.800Z,1.7
2016-03-16T05:34:18.771Z,1.78
2016-03-16T05:35:18.806Z,1.67
2016-03-16T05:36:18.792Z,1.6
2016-03-16T05:37:18.826Z,1.7
2016-03-16T05:38:18.814Z,1.77
2016-03-16T05:39:18.848Z,1.66
2016-03-16T05:40:18.835Z,1.73
2016-03-16T05:41:18.868Z,1.67
2016-03-16T05:42:18.856Z,1.68
2016-03-16T05:43:18.858Z,1.81
2016-03-16T05:44:18.861Z,1.62
2016-03-16T05:45:18.879Z,1.74
2016-03-16T05:46:18.897Z,1.7
2016-03-16T05:47:18.900Z,1.76
2016-03-16T05:48:18.886Z,1.71
2016-03-16T05:49:18.889Z,1.78
2016-03-16T05:50:18.892Z,1.88
2016-03-16T05:51:18.911Z,1.78
2016-03-16T05:52:18.930Z,1.78
2016-03-16T05:53:18.963Z,1.8
2016-03-16T05:54:18.966Z,1.7
2016-03-16T05:55:18.937Z,1.76
2016-03-16T05:56:18.971Z,1.76
2016-03-16T05:57:18.958Z,1.68
2016-03-16T05:58:18.977Z,1.74
2016-03-16T05:59:18.964Z,1.88
2016-03-16T06:00:18.999Z,1.85
2016-03-16T06:01:18.985Z,1.85
2016-03-16T06:02:18.988Z,1.66
2016-03-16T06:03:19.007Z,1.71
2016-03-16T06:04:18.993Z,1.74
2016-03-16T06:05:19.027Z,1.87
2016-03-16T06:06:19.014Z,1.85
2016-03-16T06:07:19.048Z,1.78
2016-03-16T06:08:19.034Z,1.66
2016-03-16T06:09:19.068Z,1.66
2016-03-16T06:10:19.040Z,1.73
2016-03-16T06:11:19.058Z,1.77
2016-03-16T06:12:19.062Z,1.73
2016-03-16T06:13:19.095Z,1.67
2016-03-16T06:14:19.114Z,1.66
2016-03-16T06:15:19.085Z,1.71
2016-03-16T06:16:19.119Z,1.78
2016-03-16T06:17:19.106Z,1.68
2016-03-16T06:18:19.124Z,1.76
2016-03-16T06:19:19.095Z,1.78
2016-03-16T06:20:19.130Z,1.77
2016-03-16T06:21:19.179Z,1.8
2016-03-16T06:22:19.135Z,1.85
2016-03-16T06:23:19.138Z,1.81
2016-03-16T06:24:19.155Z,1.8
2016-03-16T06:25:19.159Z,1.81
2016-03-16T06:26:19.177Z,1.85
2016-03-16T06:27:19.180Z,1.7
2016-03-16T06:28:19.167Z,1.91
2016-03-16T06:29:19.202Z,1.88
2016-03-16T06:30:19.203Z,1.76
2016-03-16T06:31:19.206Z,1.77
2016-03-16T06:32:19.224Z,1.89
2016-03-16T06:33:19.212Z,1.77
2016-03-16T06:34:19.308Z,1.81
2016-03-16T06:35:19.217Z,1.76
2016-03-16T06:36:19.235Z,1.85
2016-03-16T06:37:19.253Z,1.71
2016-03-16T06:38:19.241Z,1.8
2016-03-16T06:39:19.259Z,1.87
2016-03-16T06:40:19.261Z,1.94
2016-03-16T06:41:19.295Z,1.92
2016-03-16T06:42:19.267Z,1.71
2016-03-16T06:43:19.316Z,1.91
2016-03-16T06:44:19.304Z,1.94
2016-03-16T06:45:19.322Z,1.78
2016-03-16T06:46:19.325Z,1.94
2016-03-16T06:47:19.328Z,1.91
2016-03-16T06:48:19.345Z,1.94
2016-03-16T06:49:19.364Z,2.04
2016-03-16T06:50:19.350Z,1.87
2016-03-16T06:51:19.353Z,1.87
2016-03-16T06:52:19.372Z,1.78
2016-03-16T06:53:19.359Z,1.81
2016-03-16T06:54:19.394Z,1.84
2016-03-16T06:55:19.380Z,1.85
2016-03-16T06:56:19.414Z,1.73
2016-03-16T06:57:19.385Z,1.81
2016-03-16T06:58:19.404Z,1.88
2016-03-16T06:59:19.406Z,1.8
2016-03-16T07:00:19.409Z,1.74
2016-03-16T07:01:19.474Z,1.85
2016-03-16T07:02:19.430Z,1.88
2016-03-16T07:03:19.464Z,1.91
2016-03-16T07:04:19.436Z,1.95
2016-03-16T07:05:19.469Z,1.91
2016-03-16T07:06:19.457Z,2.02
2016-03-16T07:07:19.475Z,1.89
2016-03-16T07:08:19.477Z,1.87
2016-03-16T07:09:19.496Z,1.91
2016-03-16T07:10:19.482Z,1.89
2016-03-16T07:11:19.485Z,2.04
2016-03-16T07:12:19.487Z,2.13
2016-03-16T07:13:19.506Z,2.13
2016-03-16T07:14:19.525Z,2.13
2016-03-16T07:15:19.527Z,2.1
2016-03-16T07:16:19.561Z,2.02
2016-03-16T07:17:19.580Z,2.1
2016-03-16T07:18:19.567Z,2.18
2016-03-16T07:19:19.570Z,2.2
2016-03-16T07:20:19.572Z,2.22
2016-03-16T07:21:19.575Z,2.15
2016-03-16T07:22:19.608Z,2.24
2016-03-16T07:23:19.627Z,2.29
2016-03-16T07:24:19.583Z,2.22
2016-03-16T07:25:19.617Z,2.31
2016-03-16T07:26:19.620Z,2.35
2016-03-16T07:27:19.654Z,2.25
2016-03-16T07:28:19.625Z,2.29
2016-03-16T07:29:19.675Z,2.18
2016-03-16T07:30:19.677Z,2.28
2016-03-16T07:31:19.633Z,2.32
2016-03-16T07:32:19.651Z,2.38
2016-03-16T07:33:19.685Z,2.32
2016-03-16T07:34:19.672Z,2.39
2016-03-16T07:35:19.674Z,2.24
2016-03-16T07:36:19.693Z,2.28
2016-03-16T07:37:19.696Z,2.28
2016-03-16T07:38:19.715Z,2.32
2016-03-16T07:39:19.718Z,2.36
2016-03-16T07:40:19.720Z,2.39
2016-03-16T07:41:19.723Z,2.5
2016-03-16T07:42:19.740Z,2.44
2016-03-16T07:43:19.743Z,2.56
2016-03-16T07:44:19.667Z,2.38
2016-03-16T07:45:19.764Z,2.49
2016-03-16T07:46:19.970Z,2.6
2016-03-16T07:47:19.769Z,2.56
2016-03-16T07:48:19.788Z,2.56
2016-03-16T07:49:19.791Z,2.57
2016-03-16T07:50:19.794Z,2.67
2016-03-16T07:51:19.812Z,2.6
2016-03-16T07:52:19.814Z,2.79
2016-03-16T07:53:19.817Z,2.9
2016-03-16T07:54:19.835Z,2.97
2016-03-16T07:55:19.838Z,2.97
2016-03-16T07:56:19.856Z,2.86
2016-03-16T07:57:19.891Z,2.83
2016-03-16T07:58:19.862Z,2.79
2016-03-16T07:59:19.740Z,2.72
2016-03-16T08:00:19.867Z,2.95
2016-03-16T08:01:19.902Z,2.95
2016-03-16T08:02:19.904Z,3.04
2016-03-16T08:03:19.922Z,3.01
2016-03-16T08:04:19.956Z,2.95
2016-03-16T08:05:19.943Z,3.01
2016-03-16T08:06:19.911Z,2.93
2016-03-16T08:07:19.945Z,2.95
2016-03-16T08:08:19.932Z,2.92
2016-03-16T08:09:19.950Z,3.03
2016-03-16T08:10:19.953Z,3.18
2016-03-16T08:11:20.018Z,3.19
2016-03-16T08:12:19.989Z,3.16
2016-03-16T08:13:19.992Z,3.1
2016-03-16T08:14:19.901Z,3.01
2016-03-16T08:15:20.013Z,3.03
2016-03-16T08:16:20.016Z,3.11
2016-03-16T08:17:20.019Z,3.13
2016-03-16T08:18:20.021Z,3.05
2016-03-16T08:19:20.024Z,3.13
2016-03-16T08:20:20.105Z,3.29
2016-03-16T08:21:20.030Z,3.36
2016-03-16T08:22:20.063Z,3.48
2016-03-16T08:23:20.065Z,3.5
2016-03-16T08:24:20.084Z,3.45
2016-03-16T08:25:20.102Z,3.32
2016-03-16T08:26:20.090Z,3.31
2016-03-16T08:27:20.093Z,3.53
2016-03-16T08:28:20.126Z,3.74
2016-03-16T08:29:20.113Z,3.86
2016-03-16T08:30:20.132Z,3.8
2016-03-16T08:31:20.150Z,3.77
2016-03-16T08:32:20.137Z,3.83
2016-03-16T08:33:20.171Z,3.8
2016-03-16T08:34:20.158Z,3.88
2016-03-16T08:35:20.192Z,3.92
2016-03-16T08:36:20.179Z,3.91
2016-03-16T08:37:20.213Z,3.98
2016-03-16T08:38:20.200Z,4.04
2016-03-16T08:39:20.203Z,4.19
2016-03-16T08:40:20.236Z,4.12
2016-03-16T08:41:20.224Z,4.35
2016-03-16T08:42:20.241Z,4.41
2016-03-16T08:43:20.260Z,4.49
2016-03-16T08:44:20.278Z,4.59
2016-03-16T08:45:20.266Z,4.7
2016-03-16T08:46:20.268Z,4.71
2016-03-16T08:47:20.272Z,4.71
2016-03-16T08:48:20.321Z,4.75
2016-03-16T08:49:20.339Z,4.86
2016-03-16T08:50:20.341Z,5.05
2016-03-16T08:51:20.329Z,5.02
2016-03-16T08:52:20.363Z,5.1
2016-03-16T08:53:20.427Z,5.32
2016-03-16T08:54:20.368Z,5.33
2016-03-16T08:55:20.371Z,5.44
2016-03-16T08:56:20.374Z,5.64
2016-03-16T08:57:20.376Z,6.05
2016-03-16T08:58:20.395Z,6.46
2016-03-16T08:59:20.413Z,6.57
2016-03-16T09:00:20.400Z,6.48
2016-03-16T09:01:20.496Z,6.67
2016-03-16T09:02:20.437Z,6.81
2016-03-16T09:03:20.486Z,6.96
2016-03-16T09:04:20.457Z,6.97
2016-03-16T09:05:20.334Z,6.97
2016-03-16T09:06:20.500Z,7.13
2016-03-16T09:07:20.392Z,6.92
2016-03-16T09:08:20.551Z,7.11
2016-03-16T09:09:20.539Z,7.31
2016-03-16T09:10:20.541Z,7.31
2016-03-16T09:11:20.544Z,7.47
2016-03-16T09:12:20.577Z,7.67
2016-03-16T09:13:20.705Z,7.98
2016-03-16T09:14:20.646Z,8.12
2016-03-16T09:15:20.616Z,8.19
2016-03-16T09:16:20.635Z,8.05
2016-03-16T09:17:20.638Z,8.15
2016-03-16T09:18:20.671Z,7.94
2016-03-16T09:19:20.752Z,7.88
2016-03-16T09:20:20.692Z,7.76
2016-03-16T09:21:20.932Z,7.58
2016-03-16T09:22:20.763Z,7.54
2016-03-16T09:23:20.719Z,7.47
2016-03-16T09:24:20.738Z,7.38
2016-03-16T09:25:21.679Z,7.38
2016-03-16T09:26:20.814Z,7.24
2016-03-16T09:27:20.763Z,7.18
2016-03-16T09:28:20.861Z,7.21
2016-03-16T09:29:20.640Z,7.43
2016-03-16T09:30:40.966Z,7.88
2016-03-16T09:31:20.746Z,7.63
2016-03-16T09:32:20.790Z,7.88
2016-03-16T09:33:20.788Z,8.26
2016-03-16T09:34:20.818Z,8.42
2016-03-16T09:35:20.785Z,8.71
2016-03-16T09:36:20.818Z,8.69
2016-03-16T09:37:20.818Z,8.63
2016-03-16T09:38:20.850Z,8.51
2016-03-16T09:39:20.819Z,8.06
2016-03-16T09:40:20.867Z,7.98
2016-03-16T09:41:20.870Z,7.85
2016-03-16T09:42:20.872Z,7.66
2016-03-16T09:43:20.889Z,7.48
2016-03-16T09:44:20.906Z,7.76
2016-03-16T09:45:20.924Z,7.67
2016-03-16T09:46:20.912Z,7.67
2016-03-16T09:47:20.961Z,8.16
2016-03-16T09:48:20.948Z,8.49
2016-03-16T09:49:20.982Z,8.69
2016-03-16T09:50:20.984Z,8.82
2016-03-16T09:51:21.003Z,8.78
2016-03-16T09:52:21.005Z,8.67
2016-03-16T09:53:21.024Z,8.69
2016-03-16T09:54:21.042Z,8.92
2016-03-16T09:55:21.060Z,9.13
2016-03-16T09:56:21.079Z,9.31
2016-03-16T09:57:21.080Z,9.48
2016-03-16T09:58:21.116Z,9.98
2016-03-16T09:59:21.118Z,10.07
2016-03-16T10:00:21.136Z,10.2
2016-03-16T10:01:21.138Z,10.22
2016-03-16T10:02:21.174Z,10.28
2016-03-16T10:03:21.144Z,10.4
2016-03-16T10:04:21.193Z,10.81
2016-03-16T10:05:21.212Z,11.33
2016-03-16T10:06:21.074Z,11.48
2016-03-16T10:07:21.232Z,11.59
2016-03-16T10:08:21.268Z,11.41
2016-03-16T10:09:21.285Z,11.15
2016-03-16T10:10:21.287Z,10.79
2016-03-16T10:11:21.323Z,10.84
2016-03-16T10:12:21.340Z,10.51
2016-03-16T10:13:21.359Z,10.78
2016-03-16T10:14:21.361Z,10.78
2016-03-16T10:15:21.380Z,10.61
2016-03-16T10:16:21.382Z,10.67
2016-03-16T10:17:21.417Z,10.44
2016-03-16T10:18:21.420Z,10.22
2016-03-16T10:19:21.515Z,10.22
2016-03-16T10:20:21.440Z,10.4
2016-03-16T10:21:21.489Z,10.42
2016-03-16T10:22:21.493Z,10.44
2016-03-16T10:23:21.511Z,10.23
2016-03-16T10:24:21.514Z,10.02
2016-03-16T10:25:21.547Z,9.89
2016-03-16T10:26:21.566Z,9.87
2016-03-16T10:27:21.584Z,9.98
2016-03-16T10:28:21.571Z,9.86
2016-03-16T10:29:21.605Z,10.04
2016-03-16T10:30:21.624Z,10.2
2016-03-16T10:31:21.626Z,9.8
2016-03-16T10:32:21.644Z,9.54
2016-03-16T10:33:21.678Z,9.37
2016-03-16T10:34:21.680Z,9.44
2016-03-16T10:35:21.699Z,9.47
2016-03-16T10:36:21.686Z,9.28
2016-03-16T10:37:21.736Z,9.54
2016-03-16T10:38:21.738Z,9.48
2016-03-16T10:39:21.757Z,9.82
2016-03-16T10:40:21.790Z,9.87
2016-03-16T10:41:21.793Z,10.04
2016-03-16T10:42:21.812Z,10.07
2016-03-16T10:43:21.814Z,9.99
2016-03-16T10:44:21.848Z,10.02
2016-03-16T10:45:21.835Z,10.05
2016-03-16T10:46:21.869Z,9.95
2016-03-16T10:47:21.872Z,10.09
2016-03-16T10:48:21.906Z,10.34
2016-03-16T10:49:21.909Z,10.61
2016-03-16T10:50:21.927Z,10.81
2016-03-16T10:51:21.946Z,10.92
2016-03-16T10:52:21.964Z,11.04
2016-03-16T10:53:21.967Z,11.35
2016-03-16T10:54:22.000Z,11.36
2016-03-16T10:55:22.019Z,11.25
2016-03-16T10:56:22.053Z,11.54
2016-03-16T10:57:22.072Z,11.65
2016-03-16T10:58:22.058Z,11.77
2016-03-16T10:59:22.092Z,11.86
2016-03-16T11:00:22.079Z,12.02
2016-03-16T11:01:22.114Z,12.2
2016-03-16T11:02:22.147Z,12.24
2016-03-16T11:03:22.181Z,12.54
2016-03-16T11:04:22.184Z,12.72
2016-03-16T11:05:22.202Z,12.7
2016-03-16T11:06:22.189Z,12.94
2016-03-16T11:07:22.207Z,13.05
2016-03-16T11:08:22.226Z,12.95
2016-03-16T11:09:22.229Z,12.83
2016-03-16T11:10:22.263Z,12.49
2016-03-16T11:11:22.280Z,12.17
2016-03-16T11:12:22.315Z,12.25
2016-03-16T11:13:22.318Z,12.28
2016-03-16T11:14:22.335Z,12.03
2016-03-16T11:15:22.370Z,12.12
2016-03-16T11:16:22.373Z,12.32
2016-03-16T11:17:22.376Z,12.2
2016-03-16T11:18:22.409Z,12.28
2016-03-16T11:19:22.474Z,12.62
2016-03-16T11:20:22.446Z,12.82
2016-03-16T11:21:22.464Z,12.82
2016-03-16T11:22:22.482Z,12.65
2016-03-16T11:23:22.484Z,12.7
2016-03-16T11:24:22.504Z,12.87
2016-03-16T11:25:22.522Z,12.72
2016-03-16T11:26:22.570Z,12.76
2016-03-16T11:27:22.573Z,12.55
2016-03-16T11:28:22.592Z,12.62
2016-03-16T11:29:22.595Z,12.95
2016-03-16T11:30:22.614Z,13.15
2016-03-16T11:31:22.648Z,12.53
2016-03-16T11:32:22.666Z,12.42
2016-03-16T11:33:22.684Z,12.4
2016-03-16T11:34:22.702Z,12.61
2016-03-16T11:35:23.032Z,12.93
2016-03-16T11:36:22.739Z,12.79
2016-03-16T11:37:22.757Z,12.76
2016-03-16T11:38:22.775Z,12.65
2016-03-16T11:39:22.793Z,12.8
2016-03-16T11:40:22.813Z,13
2016-03-16T11:41:22.815Z,13.01
2016-03-16T11:42:22.848Z,13.03
2016-03-16T11:43:22.852Z,13.3
2016-03-16T11:44:23.151Z,13.46
2016-03-16T11:45:22.904Z,13.63
2016-03-16T11:46:22.906Z,13.75
2016-03-16T11:47:22.909Z,14.03
2016-03-16T11:48:22.959Z,14.11
2016-03-16T11:49:22.977Z,14.15
2016-03-16T11:50:23.010Z,13.93
2016-03-16T11:51:22.998Z,13.63
2016-03-16T11:52:23.016Z,13.6
2016-03-16T11:53:23.018Z,13.25
2016-03-16T11:54:23.053Z,13.28
2016-03-16T11:55:23.102Z,13.16
2016-03-16T11:56:23.106Z,13.22
2016-03-16T11:57:23.123Z,13.27
2016-03-16T11:58:23.126Z,13
2016-03-16T11:59:23.144Z,13.27
2016-03-16T12:00:23.147Z,13.56
2016-03-16T12:01:23.181Z,13.38
2016-03-16T12:02:23.214Z,13.49
2016-03-16T12:03:23.202Z,13.44
2016-03-16T12:04:23.236Z,13.09
2016-03-16T12:05:23.239Z,12.73
2016-03-16T12:06:23.288Z,12.55
2016-03-16T12:07:23.322Z,12.62
2016-03-16T12:08:23.294Z,12.79
2016-03-16T12:09:23.327Z,12.86
2016-03-16T12:10:23.346Z,12.91
2016-03-16T12:11:23.380Z,13.25
2016-03-16T12:12:23.382Z,13.42
2016-03-16T12:13:23.401Z,13.47
2016-03-16T12:14:23.419Z,13.28
2016-03-16T12:15:23.421Z,13.5
2016-03-16T12:16:23.440Z,13.49
2016-03-16T12:17:23.474Z,13.08
2016-03-16T12:18:23.477Z,12.65
2016-03-16T12:19:23.495Z,12.6
2016-03-16T12:20:23.513Z,12.6
2016-03-16T12:21:23.563Z,12.49
2016-03-16T12:22:23.565Z,12.31
2016-03-16T12:23:23.584Z,12.31
2016-03-16T12:24:23.601Z,12.43
2016-03-16T12:25:23.604Z,12.32
2016-03-16T12:26:23.623Z,11.99
2016-03-16T12:27:23.657Z,11.99
2016-03-16T12:28:23.675Z,12.1
2016-03-16T12:29:23.694Z,12.21
2016-03-16T12:30:23.868Z,12.47
2016-03-16T12:31:23.715Z,12.75
2016-03-16T12:32:23.733Z,12.78
2016-03-16T12:33:23.751Z,12.93
2016-03-16T12:34:23.754Z,12.95
2016-03-16T12:35:23.788Z,13.03
2016-03-16T12:36:23.806Z,13.19
2016-03-16T12:37:23.824Z,13.27
2016-03-16T12:38:23.828Z,13.41
2016-03-16T12:39:23.861Z,13.68
2016-03-16T12:40:23.895Z,13.83
2016-03-16T12:41:23.897Z,13.87
2016-03-16T12:42:23.900Z,13.92
2016-03-16T12:43:23.935Z,13.81
2016-03-16T12:44:23.953Z,13.86
2016-03-16T12:45:24.049Z,13.72
2016-03-16T12:46:24.035Z,13.87
2016-03-16T12:47:24.024Z,14.26
2016-03-16T12:48:24.041Z,14.26
2016-03-16T12:49:24.044Z,14.26
2016-03-16T12:50:24.062Z,14.5
2016-03-16T12:51:23.910Z,14.59
2016-03-16T12:52:24.099Z,14.3
2016-03-16T12:53:24.118Z,14.04
2016-03-16T12:54:24.104Z,13.96
2016-03-16T12:55:24.154Z,13.7
2016-03-16T12:56:24.157Z,13.49
2016-03-16T12:57:24.176Z,13.63
2016-03-16T12:58:24.193Z,13.41
2016-03-16T12:59:24.212Z,13.27
2016-03-16T13:00:24.293Z,13.16
2016-03-16T13:01:24.249Z,13.46
2016-03-16T13:02:24.283Z,13.68
2016-03-16T13:03:24.316Z,13.63
2016-03-16T13:04:24.289Z,13.7
2016-03-16T13:05:24.337Z,13.65
2016-03-16T13:06:24.372Z,13.83
2016-03-16T13:07:24.389Z,13.89
2016-03-16T13:08:24.408Z,13.87
2016-03-16T13:09:24.395Z,13.6
2016-03-16T13:10:24.475Z,13.57
2016-03-16T13:11:24.447Z,13.3
2016-03-16T13:12:24.480Z,13.35
2016-03-16T13:13:24.469Z,13.42
2016-03-16T13:14:24.502Z,13.53
2016-03-16T13:15:24.443Z,13.67